Centuck, New York
Current Conditions -  °F | °C
As of 5:56 AM on Sunday 23 Nov 2014 (Local Time) from KHPN Reporting Station
Drizzle Drizzle  
Wind Chill: 42°   Ceiling: 8000
Heat Index: 42°   Visibility: 10mi
Dew Point: 21°   Wind: 0mph
Humidity: 43%   Direction: NA
Pressure: 30.16"   Gusts: NA
Location:  40.9677°N, 73.8468°W
Report Text: KHPN 231056Z 00000KT 10SM -DZ FEW060 BKN080 06/M06 A3016 RMK AO2 RAB48E53DZB53 SLP218 P0000 T00561061
Loading
Personal Weather Stations






























Interactive Weather Map New forecast layout! Learn more

10-Day Weather Forecast

Advertisements
Track Severe Weather on mobile